X  Zamknij Lotniskowe dane METAR        EDDB TXL
Temperatura
2°C Temperatura
1°C Punkt rosy
93% Wilgotność



Wiatr
37 KM/H
23 MPH
10 M/S
20 KTS



220°
SW
Warunki bieżące

Mostly Cloudy with Light Wintry Mix Pochmurno , Lekka zimowa mieszanka
Ciśnienie 997 (hPa) - 29.45 (inHg)
Widoczność 2 (mil) - 4 (km)
Lotnisko
Kod lotniska EDDB

Położenie: TXL
Odległość: 10 (km)

Metar:
METAR EDDB 300750Z 22020KT 4000 -SNRA BKN007 02/01 Q0997 TEMPO 22015G25KT 2500 BKN010

Czas: 30.11.2021 08:50 CET